Time;durP1;ratioP1;P1;durP2;ratioP2;P2;SDS_P1;SDS_P2;PMS_P1;PMS_P2;Temp;Humidity;BMP_temperature;BMP_pressure;BME280_temperature;BME280_humidity;BME280_pressure;Samples;Min_cycle;Max_cycle;Signal;HPM_P1;HPM_P2
2024/01/17 00:00:15;;;;;;;6.38;2.65;;;20.20;56.00;;;;;;5090272;28;20095;-52
2024/01/17 00:02:41;;;;;;;7.78;2.75;;;20.10;56.70;;;;;;5089187;28;20040;-55
2024/01/17 00:05:10;;;;;;;6.40;2.53;;;20.20;56.80;;;;;;5084871;28;20084;-51
2024/01/17 00:07:36;;;;;;;5.68;2.70;;;20.10;55.90;;;;;;5081710;28;20039;-53
2024/01/17 00:10:03;;;;;;;8.93;2.47;;;20.10;56.30;;;;;;5090400;28;20081;-53
2024/01/17 00:12:30;;;;;;;7.90;2.90;;;20.10;56.60;;;;;;5090116;28;20028;-52
2024/01/17 00:14:56;;;;;;;8.98;2.50;;;20.10;56.40;;;;;;5090165;28;20117;-54
2024/01/17 00:17:21;;;;;;;5.00;2.45;;;20.10;55.80;;;;;;5090232;28;20158;-51
2024/01/17 00:19:47;;;;;;;8.82;2.67;;;20.10;57.00;;;;;;5088804;28;20016;-52
2024/01/17 00:22:16;;;;;;;6.80;2.53;;;20.10;56.50;;;;;;5089749;28;20080;-51
2024/01/17 00:24:42;;;;;;;5.93;2.67;;;20.10;55.60;;;;;;5090187;28;20038;-57
2024/01/17 00:27:08;;;;;;;10.13;2.85;;;20.10;56.30;;;;;;5090057;28;20043;-56
2024/01/17 00:29:35;;;;;;;9.25;2.92;;;20.10;55.70;;;;;;5090179;28;20487;-54
2024/01/17 00:32:01;;;;;;;8.77;2.88;;;20.10;55.60;;;;;;5089418;28;20031;-52
2024/01/17 00:34:27;;;;;;;6.68;2.40;;;20.10;55.90;;;;;;5089943;28;20031;-53
2024/01/17 00:36:53;;;;;;;5.65;2.55;;;20.10;57.00;;;;;;5111630;22;20495;-55
2024/01/17 00:39:19;;;;;;;7.93;2.60;;;20.10;55.70;;;;;;5077568;28;20360;-55
2024/01/17 00:41:48;;;;;;;9.50;2.65;;;20.10;56.30;;;;;;5086351;28;20031;-52
2024/01/17 00:44:17;;;;;;;7.32;2.63;;;20.10;55.80;;;;;;5090495;28;20398;-56
2024/01/17 00:46:43;;;;;;;10.50;2.60;;;20.20;56.30;;;;;;5087275;28;20035;-54
2024/01/17 00:49:09;;;;;;;6.80;2.30;;;20.20;56.40;;;;;;5081450;28;20016;-51
2024/01/17 00:51:35;;;;;;;5.85;2.60;;;20.20;56.40;;;;;;5079975;28;20032;-54
2024/01/17 00:54:01;;;;;;;4.22;2.15;;;20.20;56.30;;;;;;5081965;28;20076;-57
2024/01/17 00:56:27;;;;;;;5.10;2.35;;;20.10;55.90;;;;;;5090058;28;20106;-55
2024/01/17 00:58:53;;;;;;;6.32;2.20;;;20.20;55.90;;;;;;5090271;28;20503;-50
2024/01/17 01:01:19;;;;;;;7.40;2.53;;;20.10;56.10;;;;;;5093891;28;20036;-54
2024/01/17 01:03:45;;;;;;;4.82;2.45;;;20.10;55.60;;;;;;5094395;28;20020;-58
2024/01/17 01:06:11;;;;;;;7.28;2.83;;;20.10;56.20;;;;;;5091304;28;20066;-58
2024/01/17 01:08:37;;;;;;;4.28;2.20;;;20.10;55.50;;;;;;5085733;28;20386;-57
2024/01/17 01:11:03;;;;;;;9.77;2.75;;;20.10;56.30;;;;;;5094076;28;20031;-58
2024/01/17 01:13:29;;;;;;;6.70;2.30;;;20.10;56.20;;;;;;5094219;28;20028;-58
2024/01/17 01:15:55;;;;;;;5.38;2.58;;;20.10;55.20;;;;;;5094141;28;20028;-58
2024/01/17 01:18:20;;;;;;;8.30;2.67;;;20.10;55.30;;;;;;5094202;28;20020;-57
2024/01/17 01:20:46;;;;;;;7.75;2.85;;;20.10;56.30;;;;;;5093879;28;20548;-57
2024/01/17 01:23:12;;;;;;;7.88;2.63;;;20.10;55.20;;;;;;5094101;28;20028;-55
2024/01/17 01:25:38;;;;;;;5.13;2.50;;;20.10;55.10;;;;;;5081089;28;20061;-57
2024/01/17 01:28:04;;;;;;;6.05;2.30;;;20.10;55.20;;;;;;5085531;28;20028;-58
2024/01/17 01:30:31;;;;;;;6.38;2.25;;;20.10;55.00;;;;;;5093656;28;20586;-57
2024/01/17 01:32:57;;;;;;;10.80;2.50;;;20.10;55.40;;;;;;5093819;28;20491;-58
2024/01/17 01:35:23;;;;;;;7.13;2.50;;;20.10;55.10;;;;;;5082760;28;20036;-56
2024/01/17 01:37:48;;;;;;;4.65;2.15;;;20.10;55.00;;;;;;5090426;28;20028;-56
2024/01/17 01:40:14;;;;;;;3.97;1.92;;;20.10;55.90;;;;;;5083360;28;20024;-57
2024/01/17 01:42:46;;;;;;;4.60;2.20;;;20.10;56.20;;;;;;5085293;28;20036;-56
2024/01/17 01:45:13;;;;;;;4.10;2.00;;;20.10;55.20;;;;;;5093637;28;20394;-57
2024/01/17 01:47:39;;;;;;;3.90;2.20;;;20.10;55.20;;;;;;5093558;28;20036;-57
2024/01/17 01:50:05;;;;;;;4.82;2.17;;;20.10;55.20;;;;;;5093247;28;20032;-55
2024/01/17 01:52:33;;;;;;;5.07;2.25;;;20.10;55.20;;;;;;5093282;28;20100;-57
2024/01/17 01:55:01;;;;;;;6.45;2.53;;;20.10;55.90;;;;;;5093524;28;20038;-54
2024/01/17 01:57:29;;;;;;;6.13;2.10;;;20.10;56.10;;;;;;5093458;28;20120;-57
2024/01/17 01:59:57;;;;;;;7.07;2.53;;;20.10;55.30;;;;;;5093364;28;20024;-57
2024/01/17 02:02:24;;;;;;;4.93;2.20;;;20.10;55.30;;;;;;5087747;28;20363;-53
2024/01/17 02:04:52;;;;;;;6.45;2.20;;;20.10;55.10;;;;;;5084660;28;20062;-56
2024/01/17 02:07:21;;;;;;;7.15;2.00;;;20.10;55.80;;;;;;5093184;28;20453;-55
2024/01/17 02:09:48;;;;;;;5.32;2.08;;;20.10;56.00;;;;;;5093399;28;20465;-54
2024/01/17 02:12:15;;;;;;;5.18;2.30;;;20.10;55.20;;;;;;5091732;28;20407;-57
2024/01/17 02:14:44;;;;;;;6.65;2.30;;;20.10;55.90;;;;;;5093025;28;20526;-56
2024/01/17 02:17:09;;;;;;;5.35;2.20;;;20.10;55.60;;;;;;5092836;28;20026;-55
2024/01/17 02:19:37;;;;;;;7.07;2.42;;;20.10;55.20;;;;;;5092969;28;20028;-57
2024/01/17 02:22:03;;;;;;;4.15;2.13;;;20.10;55.90;;;;;;5070913;28;20036;-56
2024/01/17 02:24:31;;;;;;;4.65;2.13;;;20.10;55.80;;;;;;5084589;28;20028;-55
2024/01/17 02:26:59;;;;;;;4.65;2.00;;;20.10;55.20;;;;;;5092929;28;20084;-55
2024/01/17 02:29:26;;;;;;;4.20;2.33;;;20.10;55.60;;;;;;5089568;28;20031;-55
2024/01/17 02:31:52;;;;;;;5.68;2.35;;;20.00;55.40;;;;;;5078055;28;20571;-57
2024/01/17 02:34:18;;;;;;;16.38;2.50;;;20.10;56.30;;;;;;5092806;28;20039;-56
2024/01/17 02:36:44;;;;;;;12.82;4.30;;;20.10;56.30;;;;;;5092559;28;20032;-57
2024/01/17 02:39:11;;;;;;;24.05;4.18;;;19.80;49.20;;;;;;5092602;28;20069;-57
2024/01/17 02:41:36;;;;;;;13.25;3.35;;;19.80;49.50;;;;;;5074287;28;20035;-57
2024/01/17 02:44:02;;;;;;;16.77;2.70;;;19.80;52.00;;;;;;5074157;28;20491;-57
2024/01/17 02:46:29;;;;;;;9.43;2.88;;;19.90;52.40;;;;;;5086058;28;20032;-57
2024/01/17 02:48:55;;;;;;;6.50;2.80;;;19.90;53.30;;;;;;5074520;28;20111;-57
2024/01/17 02:51:21;;;;;;;12.82;2.90;;;19.90;52.70;;;;;;5092007;28;20106;-55
2024/01/17 02:53:46;;;;;;;5.85;2.60;;;19.90;52.90;;;;;;5081809;28;20067;-55
2024/01/17 02:56:14;;;;;;;7.18;2.80;;;19.90;53.50;;;;;;5083133;28;20031;-58
2024/01/17 02:58:40;;;;;;;9.98;2.92;;;19.90;53.20;;;;;;5092122;28;20169;-58
2024/01/17 03:01:06;;;;;;;9.85;2.70;;;19.90;53.10;;;;;;5090718;28;20046;-57
2024/01/17 03:03:32;;;;;;;8.00;2.53;;;19.90;53.50;;;;;;5080147;28;20495;-57
2024/01/17 03:05:58;;;;;;;10.18;2.67;;;19.90;53.30;;;;;;5089880;28;20032;-54
2024/01/17 03:08:24;;;;;;;7.68;2.50;;;19.90;53.60;;;;;;5079805;28;20028;-55
2024/01/17 03:10:50;;;;;;;8.13;2.10;;;19.90;53.60;;;;;;5083276;28;20055;-57
2024/01/17 03:13:15;;;;;;;6.80;2.40;;;19.90;53.70;;;;;;5092035;28;20479;-56
2024/01/17 03:15:41;;;;;;;13.40;2.40;;;20.00;53.70;;;;;;5091700;28;20028;-57
2024/01/17 03:18:13;;;;;;;4.13;2.30;;;19.90;53.90;;;;;;5083452;28;20024;-52
2024/01/17 03:20:42;;;;;;;4.90;2.20;;;20.00;54.00;;;;;;5082994;28;20111;-56
2024/01/17 03:23:08;;;;;;;5.32;2.33;;;20.00;53.70;;;;;;5091683;28;20028;-56
2024/01/17 03:25:34;;;;;;;6.97;2.17;;;20.00;53.90;;;;;;5091619;28;20103;-56
2024/01/17 03:28:00;;;;;;;5.72;2.40;;;20.00;53.80;;;;;;5080127;28;20080;-57
2024/01/17 03:30:26;;;;;;;6.50;2.20;;;20.00;53.90;;;;;;5071219;28;20031;-57
2024/01/17 03:32:51;;;;;;;6.15;2.20;;;20.00;53.90;;;;;;5071368;28;20442;-55
2024/01/17 03:35:17;;;;;;;4.35;2.20;;;20.00;53.90;;;;;;5071482;28;20031;-54
2024/01/17 03:37:43;;;;;;;7.53;2.58;;;20.00;53.80;;;;;;5071442;28;20028;-57
2024/01/17 03:40:09;;;;;;;4.13;2.17;;;20.00;53.60;;;;;;5070933;28;20104;-53
2024/01/17 03:42:35;;;;;;;5.85;2.28;;;20.00;54.10;;;;;;5071314;28;20033;-57
2024/01/17 03:45:01;;;;;;;4.75;2.10;;;20.00;53.80;;;;;;5071240;28;20027;-57
2024/01/17 03:47:27;;;;;;;6.00;2.85;;;20.00;53.80;;;;;;5071164;28;20020;-56
2024/01/17 03:49:53;;;;;;;4.00;2.00;;;20.00;53.80;;;;;;5067440;28;20037;-55
2024/01/17 03:52:19;;;;;;;4.88;2.05;;;20.00;53.90;;;;;;5081997;28;20454;-57
2024/01/17 03:54:45;;;;;;;4.72;2.17;;;20.00;54.00;;;;;;5078837;28;20433;-55
2024/01/17 03:57:11;;;;;;;5.40;2.30;;;20.00;54.00;;;;;;5090648;28;20065;-55
2024/01/17 03:59:37;;;;;;;3.55;1.90;;;20.00;54.10;;;;;;5091035;28;20024;-51
2024/01/17 04:02:02;;;;;;;4.63;2.20;;;20.00;53.90;;;;;;5055955;28;20054;-57
2024/01/17 04:04:28;;;;;;;4.13;2.20;;;20.00;53.90;;;;;;5090973;28;20105;-56
2024/01/17 04:06:55;;;;;;;5.07;2.20;;;20.00;54.10;;;;;;5090917;28;20110;-54
2024/01/17 04:09:21;;;;;;;6.55;2.20;;;19.90;54.00;;;;;;5090927;28;20077;-55
2024/01/17 04:11:46;;;;;;;3.60;2.08;;;20.00;54.00;;;;;;5090497;28;20028;-54
2024/01/17 04:14:12;;;;;;;4.85;2.00;;;20.00;53.90;;;;;;5090834;28;20020;-53
2024/01/17 04:16:39;;;;;;;5.13;2.22;;;19.90;53.90;;;;;;5090621;28;20039;-51
2024/01/17 04:19:07;;;;;;;6.68;2.40;;;20.00;54.00;;;;;;5066051;28;20032;-53
2024/01/17 04:21:33;;;;;;;5.38;2.15;;;19.90;53.90;;;;;;5084450;28;20027;-52
2024/01/17 04:23:58;;;;;;;5.50;2.20;;;19.90;53.80;;;;;;5072521;28;20024;-53
2024/01/17 04:26:25;;;;;;;4.80;2.30;;;19.90;54.00;;;;;;5090673;28;20077;-57
2024/01/17 04:28:52;;;;;;;7.35;2.25;;;19.90;53.80;;;;;;5090803;28;20333;-56
2024/01/17 04:31:23;;;;;;;4.70;2.28;;;19.90;53.90;;;;;;5090216;28;20483;-57
2024/01/17 04:33:50;;;;;;;6.13;2.38;;;20.00;54.00;;;;;;5090322;28;20024;-54
2024/01/17 04:36:16;;;;;;;6.28;2.80;;;19.90;53.80;;;;;;5070690;28;20017;-54
2024/01/17 04:38:43;;;;;;;4.95;2.22;;;19.90;54.00;;;;;;5085952;28;20141;-55
2024/01/17 04:41:11;;;;;;;5.22;2.22;;;19.90;54.00;;;;;;5090218;28;20093;-54
2024/01/17 04:43:40;;;;;;;6.00;2.63;;;19.90;54.00;;;;;;5048755;28;20059;-57
2024/01/17 04:46:08;;;;;;;4.87;2.50;;;19.90;54.20;;;;;;5080673;28;20454;-58
2024/01/17 04:48:35;;;;;;;5.85;2.50;;;19.90;53.70;;;;;;5090246;28;20262;-56
2024/01/17 04:51:02;;;;;;;6.22;2.67;;;19.90;53.70;;;;;;5089911;28;20040;-57
2024/01/17 04:53:28;;;;;;;7.43;2.67;;;19.90;54.30;;;;;;5090214;28;20125;-57
2024/01/17 04:55:53;;;;;;;5.20;2.35;;;20.00;54.40;;;;;;5090201;28;20020;-57
2024/01/17 04:58:19;;;;;;;4.38;2.33;;;20.00;54.20;;;;;;5090374;28;20403;-54
2024/01/17 05:00:45;;;;;;;5.45;2.60;;;20.00;54.20;;;;;;5089993;28;20067;-53
2024/01/17 05:03:11;;;;;;;4.90;2.70;;;20.00;54.20;;;;;;5081550;28;20036;-57
2024/01/17 05:05:37;;;;;;;5.68;2.65;;;20.00;54.10;;;;;;5081726;28;20023;-57
2024/01/17 05:08:03;;;;;;;5.00;2.55;;;20.00;53.90;;;;;;5090253;28;20099;-55
2024/01/17 05:10:30;;;;;;;5.93;2.60;;;20.00;54.40;;;;;;5089895;28;20243;-53
2024/01/17 05:12:55;;;;;;;8.20;3.03;;;19.90;54.00;;;;;;5066100;28;20025;-53
2024/01/17 05:15:21;;;;;;;6.72;2.42;;;19.90;54.00;;;;;;5081440;28;20035;-52
2024/01/17 05:17:47;;;;;;;6.38;3.08;;;20.00;54.10;;;;;;5081721;28;20025;-52
2024/01/17 05:20:15;;;;;;;4.93;2.90;;;20.00;54.40;;;;;;5081110;28;20016;-57
2024/01/17 05:22:41;;;;;;;8.00;3.30;;;20.00;53.90;;;;;;5090166;28;20487;-54
2024/01/17 05:25:08;;;;;;;7.55;2.70;;;20.00;54.50;;;;;;5090367;28;20024;-56
2024/01/17 05:27:34;;;;;;;4.63;2.78;;;20.00;55.40;;;;;;5089934;28;20115;-57
2024/01/17 05:30:00;;;;;;;4.38;2.60;;;20.00;54.10;;;;;;5089978;28;20074;-56
2024/01/17 05:32:25;;;;;;;5.70;2.83;;;20.00;53.80;;;;;;5089583;28;20028;-53
2024/01/17 05:34:53;;;;;;;6.85;2.38;;;20.00;54.50;;;;;;5089752;28;20444;-55
2024/01/17 05:37:21;;;;;;;4.53;2.72;;;20.00;54.30;;;;;;5089756;28;20048;-49
2024/01/17 05:39:47;;;;;;;10.90;3.10;;;19.90;54.50;;;;;;5090077;28;20024;-57
2024/01/17 05:42:14;;;;;;;7.20;3.28;;;19.90;54.10;;;;;;5089756;28;20478;-57
2024/01/17 05:44:39;;;;;;;4.25;2.80;;;19.90;54.50;;;;;;5089854;28;20090;-57
2024/01/17 05:47:05;;;;;;;7.38;3.10;;;19.90;54.30;;;;;;5077881;28;20028;-57
2024/01/17 05:49:31;;;;;;;4.68;2.85;;;19.90;54.20;;;;;;5087412;28;20031;-56
2024/01/17 05:51:57;;;;;;;5.78;2.67;;;19.90;53.80;;;;;;5093034;28;20032;-57
2024/01/17 05:54:23;;;;;;;5.38;3.10;;;19.90;54.00;;;;;;5091802;28;20089;-57
2024/01/17 05:56:49;;;;;;;7.85;3.25;;;19.90;53.90;;;;;;5081533;28;20055;-53
2024/01/17 05:59:15;;;;;;;6.20;2.92;;;19.90;54.00;;;;;;5093199;28;20207;-52
2024/01/17 06:01:40;;;;;;;6.68;3.08;;;19.90;54.20;;;;;;5093242;28;20024;-51
2024/01/17 06:04:06;;;;;;;7.55;3.17;;;19.90;54.30;;;;;;5074952;28;20031;-56
2024/01/17 06:06:32;;;;;;;5.80;3.22;;;19.90;54.10;;;;;;5093130;28;20024;-52
2024/01/17 06:08:58;;;;;;;5.57;3.10;;;19.90;54.10;;;;;;5093372;28;20036;-56
2024/01/17 06:11:24;;;;;;;6.47;3.20;;;19.90;53.90;;;;;;5074685;28;20484;-55
2024/01/17 06:13:51;;;;;;;6.43;2.95;;;19.90;53.50;;;;;;5093192;28;20171;-54
2024/01/17 06:16:17;;;;;;;6.32;3.13;;;19.90;54.10;;;;;;5093168;28;20589;-52
2024/01/17 06:18:43;;;;;;;9.38;3.28;;;20.00;54.00;;;;;;5086901;28;20100;-55
2024/01/17 06:21:09;;;;;;;8.00;3.70;;;20.00;53.70;;;;;;5064607;28;20031;-53
2024/01/17 06:23:35;;;;;;;7.03;3.25;;;20.00;53.80;;;;;;5084454;28;20051;-55
2024/01/17 06:26:01;;;;;;;6.03;3.28;;;20.00;53.70;;;;;;5074716;28;20024;-58
2024/01/17 06:28:27;;;;;;;6.90;3.40;;;20.00;54.00;;;;;;5085718;28;20479;-56
2024/01/17 06:30:53;;;;;;;6.22;3.47;;;20.00;53.80;;;;;;5073302;28;20168;-53
2024/01/17 06:33:18;;;;;;;6.30;3.38;;;20.00;53.60;;;;;;5084420;28;20036;-53
2024/01/17 06:38:37;;;;;;;7.78;3.35;;;19.90;53.80;;;;;;5019276;28;20050;-60
2024/01/17 06:41:03;;;;;;;7.90;3.30;;;19.90;53.60;;;;;;5029104;28;20071;-60
2024/01/17 06:43:29;;;;;;;6.50;3.53;;;20.00;53.60;;;;;;5032717;28;20080;-60
2024/01/17 06:45:54;;;;;;;6.80;3.15;;;19.90;53.60;;;;;;5024166;28;20149;-60
2024/01/17 06:48:21;;;;;;;7.90;3.65;;;19.90;53.80;;;;;;5032439;28;20104;-59
2024/01/17 06:50:47;;;;;;;7.40;3.55;;;19.90;53.50;;;;;;5032232;28;20033;-60
2024/01/17 06:53:15;;;;;;;6.85;3.53;;;19.90;53.50;;;;;;5032181;28;20044;-59
2024/01/17 06:55:41;;;;;;;11.40;4.22;;;20.00;53.20;;;;;;5035085;28;20084;-60
2024/01/17 06:58:07;;;;;;;15.98;3.80;;;20.00;53.50;;;;;;5031882;28;20029;-58
2024/01/17 07:00:34;;;;;;;10.32;4.00;;;20.00;53.60;;;;;;5032606;28;20026;-60
2024/01/17 07:03:00;;;;;;;15.10;4.63;;;20.00;55.30;;;;;;5030752;28;20032;-61
2024/01/17 07:05:26;;;;;;;70.07;12.13;;;20.10;55.40;;;;;;5014510;28;20041;-60
2024/01/17 07:07:52;;;;;;;207.80;38.13;;;20.20;56.10;;;;;;5031816;28;20029;-60
2024/01/17 07:10:17;;;;;;;125.40;23.75;;;20.20;56.90;;;;;;5030792;28;20073;-59
2024/01/17 07:12:43;;;;;;;50.42;14.15;;;20.20;57.90;;;;;;5027054;28;20033;-59
2024/01/17 07:15:09;;;;;;;78.10;14.45;;;20.20;57.40;;;;;;5030035;28;20045;-60
2024/01/17 07:17:35;;;;;;;75.63;19.08;;;20.20;57.30;;;;;;5025417;28;20030;-58
2024/01/17 07:20:01;;;;;;;85.95;19.73;;;20.20;57.60;;;;;;5026203;28;20025;-59
2024/01/17 07:22:26;;;;;;;69.60;15.18;;;20.10;56.10;;;;;;5025746;28;20048;-60
2024/01/17 07:24:52;;;;;;;76.00;17.75;;;20.10;56.00;;;;;;5020243;28;20049;-59
2024/01/17 07:27:18;;;;;;;61.42;13.98;;;20.10;56.00;;;;;;5024878;28;20033;-57
2024/01/17 07:29:44;;;;;;;58.70;12.52;;;20.10;55.90;;;;;;5031142;28;20021;-58
2024/01/17 07:32:10;;;;;;;44.40;12.68;;;20.10;55.70;;;;;;5015880;28;20492;-57
2024/01/17 07:34:35;;;;;;;48.08;12.20;;;20.10;56.00;;;;;;5030746;28;20095;-57
2024/01/17 07:37:01;;;;;;;37.85;10.73;;;20.10;55.70;;;;;;5031052;28;20500;-58
2024/01/17 07:39:27;;;;;;;34.33;10.75;;;20.10;55.70;;;;;;5030675;28;20026;-60
2024/01/17 07:41:55;;;;;;;34.95;10.57;;;20.00;55.30;;;;;;5022311;28;20026;-59
2024/01/17 07:44:26;;;;;;;28.67;9.88;;;20.10;56.30;;;;;;5025865;28;20033;-61
2024/01/17 07:46:53;;;;;;;37.50;10.90;;;20.10;55.00;;;;;;5031910;28;20026;-60
2024/01/17 07:49:19;;;;;;;30.08;9.82;;;20.00;55.40;;;;;;5031689;28;20450;-60
2024/01/17 07:51:45;;;;;;;29.70;10.32;;;19.90;55.10;;;;;;5031913;28;20076;-60
2024/01/17 07:54:13;;;;;;;32.85;10.13;;;19.90;55.10;;;;;;5032488;28;20033;-60
2024/01/17 07:56:39;;;;;;;28.95;9.65;;;19.90;55.20;;;;;;5031812;28;20405;-61
2024/01/17 07:59:04;;;;;;;30.48;9.35;;;19.90;55.90;;;;;;5031334;28;20025;-61
2024/01/17 08:01:30;;;;;;;28.92;8.68;;;19.90;54.90;;;;;;5030612;28;20036;-61
2024/01/17 08:03:56;;;;;;;34.33;9.98;;;19.80;54.50;;;;;;5030982;28;20040;-59
2024/01/17 08:06:22;;;;;;;26.73;8.60;;;19.80;54.50;;;;;;5031073;28;20029;-61
2024/01/17 08:08:47;;;;;;;28.63;8.75;;;19.80;54.80;;;;;;5030718;28;20053;-61
2024/01/17 08:11:13;;;;;;;34.60;9.45;;;19.80;54.90;;;;;;5030478;28;20021;-61
2024/01/17 08:13:39;;;;;;;23.33;8.68;;;19.80;54.40;;;;;;5030485;28;20033;-58
2024/01/17 08:16:05;;;;;;;29.98;9.38;;;19.80;55.00;;;;;;5029751;28;20022;-62
2024/01/17 08:18:31;;;;;;;20.95;8.80;;;19.80;54.50;;;;;;5030971;28;20524;-62
2024/01/17 08:20:57;;;;;;;25.05;8.25;;;19.80;54.70;;;;;;5030772;28;20029;-62
2024/01/17 08:23:23;;;;;;;18.30;7.57;;;19.80;54.50;;;;;;5030205;28;20049;-62
2024/01/17 08:25:49;;;;;;;16.42;6.43;;;19.60;49.20;;;;;;5022677;28;20029;-62
2024/01/17 08:28:15;;;;;;;18.00;7.20;;;19.40;43.70;;;;;;5021678;28;20021;-62
2024/01/17 08:30:40;;;;;;;20.15;7.30;;;19.40;46.40;;;;;;5017990;28;20091;-62
2024/01/17 08:33:06;;;;;;;23.77;7.20;;;19.50;47.10;;;;;;5030715;28;20033;-59
2024/01/17 08:35:32;;;;;;;28.98;8.30;;;19.50;48.50;;;;;;5030128;28;20513;-59
2024/01/17 08:37:58;;;;;;;24.27;6.90;;;19.60;48.80;;;;;;5030026;28;20034;-58
2024/01/17 08:40:24;;;;;;;23.17;7.03;;;19.60;49.20;;;;;;5012599;28;20021;-60
2024/01/17 08:42:50;;;;;;;13.98;6.63;;;19.60;49.30;;;;;;5030550;28;20090;-58
2024/01/17 08:45:17;;;;;;;14.35;6.53;;;19.60;49.20;;;;;;5030609;28;20118;-59
2024/01/17 08:47:44;;;;;;;13.57;5.43;;;19.60;49.10;;;;;;5030712;28;20504;-59
2024/01/17 08:50:14;;;;;;;14.95;6.28;;;19.60;49.40;;;;;;5028892;28;20078;-58
2024/01/17 08:52:39;;;;;;;14.70;5.88;;;19.60;49.60;;;;;;5030539;28;20037;-57
2024/01/17 08:55:08;;;;;;;11.23;5.45;;;19.70;49.60;;;;;;5030535;28;20048;-59
2024/01/17 08:57:38;;;;;;;14.35;5.68;;;19.70;49.40;;;;;;5030711;28;20056;-59
2024/01/17 09:00:08;;;;;;;12.88;5.43;;;19.70;50.40;;;;;;5030639;28;20030;-60
2024/01/17 09:02:34;;;;;;;13.38;5.72;;;19.70;49.80;;;;;;5030366;28;20033;-60
2024/01/17 09:05:00;;;;;;;13.52;5.75;;;19.70;49.80;;;;;;5030452;28;20117;-59
2024/01/17 09:07:26;;;;;;;15.65;6.18;;;19.70;50.00;;;;;;5030494;28;20050;-60
2024/01/17 09:09:51;;;;;;;12.55;4.97;;;19.70;49.90;;;;;;5030362;28;20412;-59
2024/01/17 09:12:18;;;;;;;12.00;5.32;;;19.70;50.00;;;;;;5029959;28;20045;-59
2024/01/17 09:14:44;;;;;;;13.70;5.25;;;19.70;50.00;;;;;;5030299;28;20076;-59
2024/01/17 09:17:10;;;;;;;12.82;5.53;;;19.70;50.00;;;;;;5030294;28;20021;-58
2024/01/17 09:19:36;;;;;;;13.80;5.30;;;19.70;50.00;;;;;;5030364;28;20396;-59
2024/01/17 09:22:01;;;;;;;14.70;5.82;;;19.70;50.10;;;;;;5033292;28;20040;-58
2024/01/17 09:24:27;;;;;;;11.43;5.43;;;19.70;50.20;;;;;;5034013;28;20060;-58
2024/01/17 09:26:53;;;;;;;11.52;4.72;;;19.70;50.20;;;;;;5033954;28;20191;-59
2024/01/17 09:29:19;;;;;;;12.20;5.53;;;19.70;50.20;;;;;;5033575;28;20021;-58
2024/01/17 09:31:45;;;;;;;13.75;4.68;;;19.80;50.30;;;;;;5032117;28;20112;-57
2024/01/17 09:34:11;;;;;;;28.90;6.53;;;19.70;50.90;;;;;;5033625;28;20018;-58
2024/01/17 09:36:37;;;;;;;14.32;5.85;;;19.80;52.40;;;;;;5033528;28;20025;-59
2024/01/17 09:39:03;;;;;;;18.83;5.38;;;19.80;51.70;;;;;;5033823;28;20139;-57
2024/01/17 09:41:28;;;;;;;16.83;5.65;;;19.80;52.80;;;;;;5033503;28;20033;-59
2024/01/17 09:43:56;;;;;;;19.90;5.47;;;19.90;52.80;;;;;;5033821;28;20033;-58
2024/01/17 09:46:22;;;;;;;14.25;6.05;;;19.80;52.10;;;;;;5033563;28;20045;-57
2024/01/17 09:48:49;;;;;;;19.73;5.63;;;19.90;52.80;;;;;;5028246;28;20033;-59
2024/01/17 09:51:18;;;;;;;33.50;6.28;;;19.80;52.60;;;;;;5028655;28;20061;-59
2024/01/17 09:53:46;;;;;;;18.13;6.10;;;19.80;52.10;;;;;;5030130;28;20144;-59
2024/01/17 09:56:12;;;;;;;16.13;5.60;;;19.80;52.00;;;;;;5029940;28;20033;-59
2024/01/17 09:58:42;;;;;;;20.00;5.72;;;19.80;52.20;;;;;;5030040;28;20547;-57
2024/01/17 10:01:10;;;;;;;14.00;5.28;;;19.80;51.70;;;;;;5028668;28;20030;-56
2024/01/17 10:03:38;;;;;;;15.98;5.88;;;19.90;52.10;;;;;;5029942;28;20041;-58
2024/01/17 10:06:06;;;;;;;14.50;5.32;;;19.90;51.80;;;;;;5029476;28;20382;-58
2024/01/17 10:08:32;;;;;;;14.45;4.88;;;19.90;51.90;;;;;;5025132;28;20061;-58
2024/01/17 10:10:59;;;;;;;12.25;4.70;;;19.90;51.90;;;;;;5029687;28;20401;-57
2024/01/17 10:13:25;;;;;;;11.55;5.47;;;19.90;52.10;;;;;;5029536;28;20117;-58
2024/01/17 10:15:50;;;;;;;11.10;4.78;;;20.00;51.90;;;;;;5029081;28;20161;-57
2024/01/17 10:18:17;;;;;;;13.60;5.57;;;20.00;51.80;;;;;;5029321;28;20095;-57
2024/01/17 10:20:43;;;;;;;17.83;4.85;;;20.00;51.70;;;;;;5029123;28;20116;-58
2024/01/17 10:23:09;;;;;;;18.70;5.70;;;20.00;51.70;;;;;;5029691;28;20044;-56
2024/01/17 10:25:39;;;;;;;13.57;5.20;;;20.00;51.80;;;;;;5029292;28;20029;-59
2024/01/17 10:28:05;;;;;;;12.25;4.88;;;20.00;51.80;;;;;;5029396;28;20021;-59
2024/01/17 10:30:31;;;;;;;9.98;4.70;;;19.90;51.60;;;;;;5029885;28;20159;-59
2024/01/17 10:32:58;;;;;;;11.85;4.68;;;20.00;51.80;;;;;;5028868;28;20757;-58
2024/01/17 10:35:24;;;;;;;10.23;4.85;;;20.00;51.70;;;;;;5030132;28;20759;-58
2024/01/17 10:37:54;;;;;;;15.07;4.78;;;20.00;51.70;;;;;;5029217;28;20065;-59
2024/01/17 10:40:21;;;;;;;18.20;5.28;;;20.00;51.60;;;;;;5029460;28;20026;-59
2024/01/17 10:42:47;;;;;;;14.27;4.30;;;20.00;51.50;;;;;;5029577;28;20457;-59
2024/01/17 10:45:20;;;;;;;11.25;4.40;;;19.90;51.60;;;;;;5029946;28;20108;-59
2024/01/17 10:47:46;;;;;;;9.50;4.18;;;19.90;51.80;;;;;;5029892;28;20040;-59
2024/01/17 10:50:12;;;;;;;12.65;5.20;;;20.00;51.80;;;;;;5029214;28;20029;-59
2024/01/17 10:52:43;;;;;;;11.27;4.60;;;20.00;51.80;;;;;;5029840;28;20124;-59
2024/01/17 10:55:10;;;;;;;13.88;4.50;;;20.00;51.50;;;;;;5029524;28;20037;-60
2024/01/17 10:57:44;;;;;;;12.65;4.57;;;20.00;51.70;;;;;;5028215;28;20036;-59
2024/01/17 11:00:16;;;;;;;9.70;4.95;;;20.00;51.40;;;;;;5028750;28;20036;-58
2024/01/17 11:02:44;;;;;;;11.13;5.10;;;19.90;51.40;;;;;;5029027;28;20112;-60
2024/01/17 11:05:13;;;;;;;18.15;4.63;;;19.90;51.80;;;;;;5028836;28;20400;-59
2024/01/17 11:07:40;;;;;;;13.25;4.32;;;19.90;52.00;;;;;;5027954;28;20025;-59
2024/01/17 11:10:08;;;;;;;17.70;4.90;;;19.90;51.80;;;;;;5028084;28;20057;-58
2024/01/17 11:12:36;;;;;;;12.95;5.43;;;20.00;51.80;;;;;;5028443;28;20524;-59
2024/01/17 11:15:03;;;;;;;14.68;4.72;;;20.00;51.70;;;;;;5028088;28;20107;-59
2024/01/17 11:17:35;;;;;;;12.57;4.70;;;20.00;51.80;;;;;;5028615;28;20033;-60
2024/01/17 11:20:11;;;;;;;12.45;4.88;;;20.00;51.80;;;;;;5028210;28;20163;-57
2024/01/17 11:22:39;;;;;;;30.75;5.53;;;20.00;52.30;;;;;;5028135;28;20440;-59
2024/01/17 11:25:10;;;;;;;12.55;4.50;;;20.00;52.50;;;;;;5031687;28;20489;-58
2024/01/17 11:27:59;;;;;;;13.50;5.15;;;20.00;51.70;;;;;;5031826;28;20029;-60
2024/01/17 11:30:44;;;;;;;11.02;4.47;;;20.00;51.70;;;;;;5031619;28;20290;-59
2024/01/17 11:33:13;;;;;;;12.85;4.95;;;20.00;51.50;;;;;;5031802;28;20408;-57
2024/01/17 11:35:53;;;;;;;18.95;4.85;;;20.00;51.60;;;;;;5025546;28;20061;-58
2024/01/17 11:38:24;;;;;;;28.75;4.60;;;20.00;51.50;;;;;;5027943;28;20083;-57
2024/01/17 11:41:07;;;;;;;15.43;5.10;;;20.00;52.00;;;;;;5027734;28;20034;-57
2024/01/17 11:43:38;;;;;;;20.75;5.20;;;19.90;51.80;;;;;;5025837;28;20053;-57
2024/01/17 11:46:06;;;;;;;13.55;4.30;;;20.00;51.70;;;;;;5024616;28;20025;-55
2024/01/17 11:48:38;;;;;;;14.13;5.05;;;19.90;52.00;;;;;;5027939;28;20025;-58
2024/01/17 11:51:05;;;;;;;10.90;4.30;;;20.00;51.80;;;;;;5029685;28;20065;-58
2024/01/17 11:53:32;;;;;;;14.70;4.90;;;19.90;51.70;;;;;;5031172;28;20571;-59
2024/01/17 11:56:00;;;;;;;9.73;4.55;;;19.90;52.00;;;;;;5031292;28;20070;-60
2024/01/17 11:58:45;;;;;;;13.02;4.90;;;20.00;52.40;;;;;;5030236;28;20074;-60
2024/01/17 12:01:39;;;;;;;11.52;4.82;;;19.90;51.80;;;;;;5030984;28;20029;-59
2024/01/17 12:04:10;;;;;;;14.88;4.93;;;20.00;51.70;;;;;;5030001;28;20500;-57
2024/01/17 12:06:40;;;;;;;17.13;4.55;;;20.00;52.30;;;;;;5031151;28;20021;-59
2024/01/17 12:09:08;;;;;;;15.20;5.18;;;20.00;51.80;;;;;;5031193;28;20029;-59
2024/01/17 12:11:34;;;;;;;10.50;4.68;;;20.00;51.80;;;;;;5030782;28;20033;-59
2024/01/17 12:14:01;;;;;;;10.93;4.25;;;19.90;51.80;;;;;;5030970;28;20025;-60
2024/01/17 12:16:26;;;;;;;10.57;4.43;;;19.90;51.70;;;;;;5030950;28;20030;-59
2024/01/17 12:18:59;;;;;;;12.13;4.55;;;19.90;51.90;;;;;;5030667;28;20028;-58
2024/01/17 12:21:26;;;;;;;15.00;4.57;;;19.90;52.20;;;;;;5030701;28;20022;-59
2024/01/17 12:23:52;;;;;;;21.20;5.32;;;19.90;52.20;;;;;;5030972;28;20044;-59
2024/01/17 12:26:18;;;;;;;14.57;5.10;;;20.00;52.00;;;;;;5030977;28;20112;-58
2024/01/17 21:14:21;;;;;;;14.90;7.22;;;19.60;49.40;;;;;;5120644;27;20417;-54
2024/01/17 21:16:47;;;;;;;20.00;6.70;;;19.60;50.50;;;;;;5109340;28;20020;-48
2024/01/17 21:19:13;;;;;;;16.05;6.40;;;19.70;50.20;;;;;;5109289;28;20439;-50
2024/01/17 21:21:41;;;;;;;21.38;7.15;;;19.70;51.30;;;;;;5109288;28;20400;-50
2024/01/17 21:24:07;;;;;;;18.92;6.47;;;19.70;51.10;;;;;;5133022;22;20024;-59
2024/01/17 21:26:34;;;;;;;17.30;7.15;;;19.70;51.70;;;;;;5078471;28;20047;-57